KVDI/VDI METAR and TAF weather

Enter ICAO airport designator
Station Type Date Time Source
KVDI METAR 2020/01/23 18:15 UTC NOAA

KVDI 231815Z AUTO 09007KT 10SM SCT050 OVC060 07/04 A3020 RMK AO2


Station Type Date Time Source
KVDI Decoded METAR 2020/01/23 18:15 UTC NOAA

Vidalia, Vidalia Municipal Airport, GA, United States (KVDI) 32-11-33N 082-22-19W
Jan 23, 2020 - 01:15 PM EST / 2020.01.23 1815 UTC
Wind: from the E (090 degrees) at 8 MPH (7 KT):0
Visibility: 10 mile(s):0
Sky conditions: overcast
Temperature: 44 F (7 C)
Dew Point: 39 F (4 C)
Relative Humidity: 81%
Pressure (altimeter): 30.2 in. Hg (1022 hPa)
ob: KVDI 231815Z AUTO 09007KT 10SM SCT050 OVC060 07/04 A3020 RMK AO2
cycle: 18

Station Type Date Time Source
KVDI TAF UTC NOAA

Error!

Example: see airport list